首页
METAR-TAF:

METAR-TAF

机场 :

羅曼·莫圖國際機場

科羅爾, 巴伯尔道布岛, 帛琉

纬度: 07-22N, 经度: 134-32E, 海拔: 54米

当前天气观测

该预报发布于1小时和4分钟前的16:50 UTC
风速3节,风向北转西北
温度 23°C
湿度 94%
气压 1011 hPa
能見度: 24.1公里
少量云层高于1600英尺
多云层高于30000英尺

METAR: PTRO 231650Z 34003KT 15SM FEW016 BKN300 23/22 A2984

时间: 02:54 (17:54 UTC)

预报

该预报发布于27分钟前的17:27 UTC
预报有效从23日的 18点(UTC)到 24日的 18点(UTC)
风速4节,风向多变
能見度: 10公里
少量云层高于1800英尺
散云层高于14000英尺
从 24日的 0200点(UTC)
风速5节,风向多变
能見度: 10公里
少量云层高于1600英尺
散云层高于4000英尺
散云层高于12000英尺
附近有阵雨
短暂存在
从 24日的 02点(UTC)到 24日的 06点(UTC)
散云层高于1400英尺
多云层高于3000英尺
小阵雨

TAF: PTRO 231727Z 2318/2418 VRB04KT P6SM FEW018 SCT140 FM240200 VRB05KT P6SM VCSH FEW016 SCT040 SCT120 TEMPO 2402/2406 -SHRA SCT014 BKN030

超过4000个机场的气象观测和天气预报(METAR&TAF报告)。

可查询的气象台以黄色和红色小点在地图上表示。

将鼠标移到小点上方,可查看气象台名称。

然后点击查看天气观测和预报。

如需切换地图:点击带黑十字的绿色按钮放大地图;点击带横线的绿色按钮缩小地图;或者点击绿色箭头查看邻近地区的地图。


METAR-TAF: